Pagina principale
METAR-TAF:

METAR-TAF

Aeroporti :

Aeroporto di Roma-Fiumicino

Roma-Fiumicino, Italia

latitudine: 41-48N, longitudine: 012-14E, altezza: 2 m

Osservazione

Il bollettino è stato emesso 44 minuti fa, alle 07:20 UTC
Vento 5 kt da nord-est
Temperature 12°C
Umidità 76%
Pressione 1020 hPa
Visibilità 10 km o più
nessuna nube inferiore a 1500 m e nessun cumulonembo

METAR: LIRF 160720Z 05005KT CAVOK 12/08 Q1020 NOSIG

Ora: 09:04 (08:04 UTC)

Previsione

Il bollettino è stato emesso 3 ore e 4 minuti fa, alle 05:00 UTC
Previsione valida dal 16 alle 06 UTC al 17 alle 12 UTC
Vento 12 kt da nord-est
Visibilità 10 km o più
Nubi sparse ad un'altezza di 3000 ft
Temporaneamente
dal 16 alle 15 UTC al 16 alle 18 UTC
Visibilità: 4000 m
rovesci di pioggia
Evoluzione graduale
dal 16 alle 16 UTC al 16 alle 18 UTC
Vento 15 kt da nord-est con raffiche fino a 25 kt

TAF: LIRF 160500Z 1606/1712 04012KT 9999 SCT030 TEMPO 1615/1618 4000 SHRA BECMG 1616/1618 04015G25KT

Osservazioni e previsioni meteorologiche di più di 4000 aeroporti (messaggi METAR e TAF).

Le stazioni disponibili sono rappresentate dai dischi gialli e rossi sulla carta.

Puntare il mouse per vedere il nome della stazione.

Clicca sopra per visualizzare le osservazioni e previsioni meteorologiche.

Per cambiare la mappa : fare clic sui pulsanti verdi con una croce nera per ingrandire, il pulsante verde con un trattino per diminuire, o sulla freccia verde per le mappe adiacenti.


METAR-TAF: